createdAt,value
2019-04-03T00:00:10.065Z,99429.23
2019-04-03T00:01:44.910Z,99435.70
2019-04-03T00:03:19.554Z,99428.04
2019-04-03T00:04:54.002Z,99428.77
2019-04-03T00:06:28.450Z,99429.62
2019-04-03T00:08:02.912Z,99425.67
2019-04-03T00:09:37.365Z,99427.67
2019-04-03T00:11:12.232Z,99428.34
2019-04-03T00:12:47.149Z,99430.77
2019-04-03T00:14:21.689Z,99424.72
2019-04-03T00:15:56.188Z,99430.97
2019-04-03T00:17:30.556Z,99427.63
2019-04-03T00:19:04.998Z,99423.11
2019-04-03T00:20:39.585Z,99428.38
2019-04-03T00:22:13.998Z,99432.33
2019-04-03T00:23:48.710Z,99435.28
2019-04-03T00:25:23.334Z,99440.52
2019-04-03T00:26:57.818Z,99448.41
2019-04-03T00:28:32.314Z,99468.11
2019-04-03T00:30:07.847Z,99471.30
2019-04-03T00:31:42.266Z,99491.13
2019-04-03T00:33:16.803Z,99502.27
2019-04-03T00:34:51.809Z,99507.84
2019-04-03T00:36:27.355Z,99509.87
2019-04-03T00:38:01.762Z,99511.09
2019-04-03T00:39:36.438Z,99496.19
2019-04-03T00:41:10.893Z,99483.22
2019-04-03T00:42:45.274Z,99469.81
2019-04-03T00:44:19.722Z,99449.99
2019-04-03T00:45:55.104Z,99444.86
2019-04-03T00:47:29.953Z,99442.23
2019-04-03T00:49:04.981Z,99453.81
2019-04-03T00:50:39.531Z,99466.72
2019-04-03T00:52:14.072Z,99478.18
2019-04-03T00:53:48.521Z,99488.03
2019-04-03T00:55:23.006Z,99496.13
2019-04-03T00:56:57.382Z,99489.11
2019-04-03T00:58:42.950Z,99477.34
2019-04-03T01:00:17.920Z,99466.87
2019-04-03T01:01:52.546Z,99455.52
2019-04-03T01:03:28.243Z,99451.95
2019-04-03T01:05:03.574Z,99457.14
2019-04-03T01:06:37.947Z,99454.47
2019-04-03T01:08:12.318Z,99455.91
2019-04-03T01:09:46.700Z,99443.98
2019-04-03T01:11:21.257Z,99444.98
2019-04-03T01:12:56.029Z,99444.01
2019-04-03T01:14:31.583Z,99449.11
2019-04-03T01:16:07.125Z,99455.11
2019-04-03T01:17:41.888Z,99450.00
2019-04-03T01:19:16.486Z,99459.44
2019-04-03T01:20:51.378Z,99464.55
2019-04-03T01:22:25.821Z,99457.48
2019-04-03T01:24:00.258Z,99449.30
2019-04-03T01:25:34.630Z,99448.64
2019-04-03T01:27:11.186Z,99443.91
2019-04-03T01:28:45.353Z,99443.01
2019-04-03T01:30:19.762Z,99432.03
2019-04-03T01:31:54.154Z,99428.86
2019-04-03T01:33:28.544Z,99420.98
2019-04-03T01:35:03.187Z,99417.08
2019-04-03T01:36:37.591Z,99426.12
2019-04-03T01:38:12.692Z,99425.55
2019-04-03T01:39:47.053Z,99420.23
2019-04-03T01:41:21.655Z,99416.53
2019-04-03T01:42:56.192Z,99429.83
2019-04-03T01:44:30.557Z,99426.73
2019-04-03T01:46:05.284Z,99440.31
2019-04-03T01:47:39.931Z,99442.20
2019-04-03T01:49:14.411Z,99441.44
2019-04-03T01:50:49.283Z,99431.67
2019-04-03T01:52:23.655Z,99437.70
2019-04-03T01:53:58.466Z,99427.73
2019-04-03T01:55:34.731Z,99425.30
2019-04-03T01:57:09.403Z,99416.80
2019-04-03T01:58:43.789Z,99412.33
2019-04-03T02:00:18.503Z,99403.55
2019-04-03T02:01:53.157Z,99403.32
2019-04-03T02:03:27.539Z,99396.81
2019-04-03T02:05:02.166Z,99396.38
2019-04-03T02:06:36.572Z,99395.26
2019-04-03T02:08:11.047Z,99398.00
2019-04-03T02:09:46.610Z,99401.19
2019-04-03T02:11:21.540Z,99405.70
2019-04-03T02:12:56.173Z,99403.14
2019-04-03T02:14:31.025Z,99404.27
2019-04-03T02:16:05.893Z,99404.13
2019-04-03T02:17:40.284Z,99398.67
2019-04-03T02:19:14.661Z,99399.94
2019-04-03T02:20:49.181Z,99398.02
2019-04-03T02:22:23.545Z,99401.63
2019-04-03T02:23:58.161Z,99398.23
2019-04-03T02:25:32.622Z,99398.00
2019-04-03T02:27:06.990Z,99394.77
2019-04-03T02:28:41.614Z,99391.08
2019-04-03T02:30:16.249Z,99386.74
2019-04-03T02:31:52.733Z,99387.51
2019-04-03T02:33:28.982Z,99389.29
2019-04-03T02:35:06.809Z,99383.56
2019-04-03T02:36:41.122Z,99384.41
2019-04-03T02:38:15.909Z,99378.68
2019-04-03T02:39:50.411Z,99380.05
2019-04-03T02:41:24.772Z,99382.27
2019-04-03T02:42:59.819Z,99373.81
2019-04-03T02:44:34.863Z,99370.92
2019-04-03T02:46:09.719Z,99376.08
2019-04-03T02:48:05.596Z,99372.58
2019-04-03T02:49:42.707Z,99375.34
2019-04-03T02:51:17.023Z,99377.19
2019-04-03T02:52:56.676Z,99368.20
2019-04-03T02:54:34.689Z,99374.84
2019-04-03T02:56:07.495Z,99369.47
2019-04-03T02:57:44.216Z,99370.09
2019-04-03T02:59:19.313Z,99370.76
2019-04-03T03:00:54.431Z,99371.02
2019-04-03T03:02:30.193Z,99380.84
2019-04-03T03:04:05.323Z,99378.36
2019-04-03T03:05:39.935Z,99378.84
2019-04-03T03:07:14.430Z,99378.26
2019-04-03T03:08:49.191Z,99364.81
2019-04-03T03:10:23.966Z,99364.25
2019-04-03T03:11:59.674Z,99360.72
2019-04-03T03:13:35.237Z,99357.16
2019-04-03T03:15:11.975Z,99357.66
2019-04-03T03:16:49.302Z,99352.64
2019-04-03T03:18:26.363Z,99349.27
2019-04-03T03:20:06.646Z,99350.56
2019-04-03T03:21:40.087Z,99348.09
2019-04-03T03:23:16.792Z,99345.91
2019-04-03T03:24:51.907Z,99353.17
2019-04-03T03:26:26.457Z,99348.47
2019-04-03T03:28:01.522Z,99347.83
2019-04-03T03:29:36.659Z,99340.96
2019-04-03T03:31:12.765Z,99347.38
2019-04-03T03:32:48.443Z,99343.31
2019-04-03T03:34:45.020Z,99344.52
2019-04-03T03:36:01.281Z,99341.03
2019-04-03T03:37:37.246Z,99334.98
2019-04-03T03:39:12.808Z,99337.11
2019-04-03T03:40:49.272Z,99329.58
2019-04-03T03:42:27.937Z,99330.37
2019-04-03T03:44:02.559Z,99333.61
2019-04-03T03:45:37.592Z,99324.15
2019-04-03T03:47:12.929Z,99318.55
2019-04-03T03:48:48.157Z,99320.35
2019-04-03T03:50:27.678Z,99308.49
2019-04-03T03:52:05.222Z,99305.46
2019-04-03T03:53:43.936Z,99302.22
2019-04-03T03:55:17.042Z,99302.55
2019-04-03T03:56:53.371Z,99305.63
2019-04-03T03:58:29.468Z,99303.59
2019-04-03T04:00:06.267Z,99304.95
2019-04-03T04:01:41.275Z,99296.97
2019-04-03T04:03:16.300Z,99298.48
2019-04-03T04:04:51.519Z,99295.94
2019-04-03T04:06:29.118Z,99294.64
2019-04-03T04:08:04.446Z,99286.94
2019-04-03T04:09:39.558Z,99283.17
2019-04-03T04:11:14.587Z,99281.73
2019-04-03T04:12:49.966Z,99285.64
2019-04-03T04:14:25.192Z,99281.83
2019-04-03T04:16:02.130Z,99279.33
2019-04-03T04:17:36.172Z,99278.70
2019-04-03T04:19:10.959Z,99277.53
2019-04-03T04:20:45.848Z,99276.78
2019-04-03T04:22:20.433Z,99281.78
2019-04-03T04:23:55.881Z,99275.10
2019-04-03T04:25:31.177Z,99271.93
2019-04-03T04:27:05.688Z,99264.48
2019-04-03T04:28:41.529Z,99267.60
2019-04-03T04:30:18.990Z,99264.33
2019-04-03T04:31:53.578Z,99261.16
2019-04-03T04:33:27.985Z,99263.45
2019-04-03T04:35:02.390Z,99258.90
2019-04-03T04:36:36.904Z,99259.73
2019-04-03T04:38:11.346Z,99260.93
2019-04-03T04:39:45.750Z,99263.02
2019-04-03T04:41:20.428Z,99264.73
2019-04-03T04:42:55.277Z,99266.28
2019-04-03T04:44:29.657Z,99265.28
2019-04-03T04:46:04.571Z,99263.28
2019-04-03T04:47:39.194Z,99266.47
2019-04-03T04:49:13.909Z,99270.11
2019-04-03T04:50:48.449Z,99269.61
2019-04-03T04:52:22.940Z,99266.97
2019-04-03T04:53:57.792Z,99270.63
2019-04-03T04:55:35.103Z,99268.52
2019-04-03T04:57:10.086Z,99263.40
2019-04-03T04:58:44.509Z,99271.73
2019-04-03T05:00:18.985Z,99268.52
2019-04-03T05:01:54.334Z,99265.06
2019-04-03T05:03:29.446Z,99259.00
2019-04-03T05:05:04.559Z,99257.25
2019-04-03T05:06:39.375Z,99257.36
2019-04-03T05:08:13.787Z,99262.78
2019-04-03T05:09:48.149Z,99261.36
2019-04-03T05:11:22.860Z,99263.23
2019-04-03T05:12:57.290Z,99268.89
2019-04-03T05:14:32.227Z,99259.50
2019-04-03T05:16:07.680Z,99263.18
2019-04-03T05:17:42.491Z,99258.84
2019-04-03T05:19:19.319Z,99258.19
2019-04-03T05:20:53.630Z,99261.62
2019-04-03T05:22:28.771Z,99257.91
2019-04-03T05:24:11.779Z,99255.66
2019-04-03T05:25:39.991Z,99251.12
2019-04-03T05:27:14.835Z,99254.50
2019-04-03T05:28:57.061Z,99261.40
2019-04-03T05:30:32.554Z,99252.81
2019-04-03T05:32:09.532Z,99254.83
2019-04-03T05:33:43.141Z,99253.71
2019-04-03T05:35:17.818Z,99252.45
2019-04-03T05:36:52.186Z,99251.80
2019-04-03T05:38:26.596Z,99251.50
2019-04-03T05:40:01.230Z,99241.30
2019-04-03T05:41:36.171Z,99247.43
2019-04-03T05:43:10.723Z,99239.50
2019-04-03T05:44:45.106Z,99237.88
2019-04-03T05:46:19.948Z,99242.05
2019-04-03T05:47:54.422Z,99242.71
2019-04-03T05:49:28.799Z,99245.97
2019-04-03T05:51:03.744Z,99246.80
2019-04-03T05:52:38.433Z,99248.23
2019-04-03T05:54:14.652Z,99246.50
2019-04-03T05:55:49.171Z,99244.66
2019-04-03T05:57:23.890Z,99240.66
2019-04-03T05:59:01.321Z,99247.74
2019-04-03T06:00:37.511Z,99247.13
2019-04-03T06:02:16.175Z,99245.38
2019-04-03T06:03:47.023Z,99242.23
2019-04-03T06:05:21.796Z,99238.97
2019-04-03T06:06:56.700Z,99241.38
2019-04-03T06:08:33.950Z,99241.92
2019-04-03T06:10:07.767Z,99233.81
2019-04-03T06:11:42.245Z,99234.28
2019-04-03T06:13:17.581Z,99231.30
2019-04-03T06:14:52.322Z,99236.36
2019-04-03T06:16:26.695Z,99230.27
2019-04-03T06:18:01.145Z,99233.60
2019-04-03T06:19:39.189Z,99234.79
2019-04-03T06:21:14.488Z,99236.13
2019-04-03T06:22:49.885Z,99237.28
2019-04-03T06:24:25.220Z,99226.34
2019-04-03T06:26:02.175Z,99224.54
2019-04-03T06:27:35.735Z,99230.55
2019-04-03T06:29:10.221Z,99228.19
2019-04-03T06:30:45.106Z,99222.59
2019-04-03T06:32:19.934Z,99225.23
2019-04-03T06:33:55.002Z,99228.81
2019-04-03T06:35:29.857Z,99224.42
2019-04-03T06:37:04.807Z,99223.84
2019-04-03T06:38:39.846Z,99227.73
2019-04-03T06:40:15.377Z,99223.16
2019-04-03T06:41:50.309Z,99221.41
2019-04-03T06:43:25.085Z,99219.73
2019-04-03T06:45:00.613Z,99212.80
2019-04-03T06:46:35.595Z,99209.16
2019-04-03T06:48:11.076Z,99211.81
2019-04-03T06:49:45.859Z,99205.46
2019-04-03T06:51:20.678Z,99205.12
2019-04-03T06:52:55.476Z,99206.13
2019-04-03T06:54:31.985Z,99205.06
2019-04-03T06:56:08.691Z,99206.85
2019-04-03T06:57:45.874Z,99201.27
2019-04-03T06:59:19.942Z,99194.31
2019-04-03T07:00:55.468Z,99198.63
2019-04-03T07:02:32.254Z,99198.63
2019-04-03T07:04:07.842Z,99195.45
2019-04-03T07:05:42.958Z,99197.05
2019-04-03T07:07:31.738Z,99188.66
2019-04-03T07:08:55.253Z,99187.59
2019-04-03T07:10:30.099Z,99191.95
2019-04-03T07:12:04.876Z,99194.38
2019-04-03T07:13:39.684Z,99190.31
2019-04-03T07:15:14.757Z,99190.95
2019-04-03T07:16:49.832Z,99200.73
2019-04-03T07:18:24.864Z,99197.36
2019-04-03T07:20:12.029Z,99193.59
2019-04-03T07:21:36.142Z,99194.81
2019-04-03T07:23:11.021Z,99196.22
2019-04-03T07:24:46.055Z,99197.38
2019-04-03T07:26:20.870Z,99194.17
2019-04-03T07:27:56.095Z,99196.00
2019-04-03T07:29:30.849Z,99187.88
2019-04-03T07:31:05.743Z,99190.73
2019-04-03T07:32:40.619Z,99189.39
2019-04-03T07:34:15.659Z,99182.47
2019-04-03T07:35:50.483Z,99184.30
2019-04-03T07:37:25.273Z,99180.31
2019-04-03T07:39:00.375Z,99186.25
2019-04-03T07:40:35.413Z,99186.44
2019-04-03T07:42:10.603Z,99188.02
2019-04-03T07:43:45.389Z,99190.31
2019-04-03T07:45:20.183Z,99189.38
2019-04-03T07:46:55.711Z,99185.23
2019-04-03T07:48:33.011Z,99178.00
2019-04-03T07:50:10.298Z,99192.39
2019-04-03T07:51:45.414Z,99196.26
2019-04-03T07:53:20.507Z,99186.77
2019-04-03T07:54:56.992Z,99186.34
2019-04-03T07:56:32.309Z,99190.17
2019-04-03T07:58:07.307Z,99201.83
2019-04-03T07:59:42.397Z,99193.98
2019-04-03T08:01:18.819Z,99197.91
2019-04-03T08:02:53.759Z,99192.37
2019-04-03T08:04:28.556Z,99190.75
2019-04-03T08:06:04.272Z,99191.80
2019-04-03T08:07:39.355Z,99179.71
2019-04-03T08:09:14.168Z,99191.47
2019-04-03T08:10:49.039Z,99192.53
2019-04-03T08:12:23.896Z,99190.95
2019-04-03T08:13:58.729Z,99191.03
2019-04-03T08:15:33.710Z,99193.45
2019-04-03T08:17:08.974Z,99190.42
2019-04-03T08:18:43.958Z,99192.20
2019-04-03T08:20:20.114Z,99179.89
2019-04-03T08:21:55.356Z,99188.53
2019-04-03T08:23:30.396Z,99198.38
2019-04-03T08:25:06.532Z,99201.41
2019-04-03T08:26:41.563Z,99192.59
2019-04-03T08:28:16.344Z,99184.54
2019-04-03T08:29:51.142Z,99188.80
2019-04-03T08:31:25.945Z,99187.05
2019-04-03T08:33:00.749Z,99184.13
2019-04-03T08:34:35.802Z,99189.47
2019-04-03T08:36:22.590Z,99181.12
2019-04-03T08:37:48.992Z,99185.41
2019-04-03T08:39:24.092Z,99188.11
2019-04-03T08:40:59.360Z,99191.84
2019-04-03T08:42:34.224Z,99195.11
2019-04-03T08:44:09.360Z,99189.66
2019-04-03T08:45:44.143Z,99181.12
2019-04-03T08:47:19.476Z,99179.12
2019-04-03T08:48:55.462Z,99179.69
2019-04-03T08:50:31.193Z,99180.45
2019-04-03T08:52:06.214Z,99173.31
2019-04-03T08:53:41.219Z,99176.69
2019-04-03T08:55:16.445Z,99185.12
2019-04-03T08:56:51.808Z,99192.38
2019-04-03T08:58:27.740Z,99188.97
2019-04-03T09:00:02.831Z,99193.44
2019-04-03T09:01:37.707Z,99188.22
2019-04-03T09:03:14.570Z,99183.30
2019-04-03T09:04:49.776Z,99184.46
2019-04-03T09:06:24.901Z,99182.59
2019-04-03T09:07:59.960Z,99170.78
2019-04-03T09:09:35.699Z,99170.08
2019-04-03T09:11:10.984Z,99171.48
2019-04-03T09:12:46.042Z,99171.11
2019-04-03T09:14:20.841Z,99167.48
2019-04-03T09:15:58.620Z,99164.78
2019-04-03T09:17:34.119Z,99162.56
2019-04-03T09:19:10.150Z,99162.98
2019-04-03T09:20:45.616Z,99167.77
2019-04-03T09:22:21.534Z,99166.47
2019-04-03T09:23:58.331Z,99147.20
2019-04-03T09:25:33.755Z,99153.64
2019-04-03T09:27:09.812Z,99139.07
2019-04-03T09:28:45.023Z,99131.77
2019-04-03T09:30:20.570Z,99136.29
2019-04-03T09:31:56.591Z,99132.06
2019-04-03T09:33:31.703Z,99135.95
2019-04-03T09:35:09.387Z,99131.06
2019-04-03T09:36:44.248Z,99128.31
2019-04-03T09:38:19.633Z,99127.66
2019-04-03T09:39:54.935Z,99124.39
2019-04-03T09:41:30.085Z,99129.80
2019-04-03T09:43:05.234Z,99129.29
2019-04-03T09:44:40.301Z,99134.78
2019-04-03T09:46:15.084Z,99133.23
2019-04-03T09:47:50.063Z,99129.72
2019-04-03T09:49:24.839Z,99129.28
2019-04-03T09:51:00.158Z,99120.98
2019-04-03T09:52:42.431Z,99123.10
2019-04-03T09:54:11.575Z,99116.97
2019-04-03T09:55:46.709Z,99119.47
2019-04-03T09:57:21.469Z,99119.00
2019-04-03T09:58:57.093Z,99122.42
2019-04-03T10:00:32.116Z,99118.59
2019-04-03T10:02:07.057Z,99115.81
2019-04-03T10:03:42.100Z,99111.93
2019-04-03T10:05:17.569Z,99117.37
2019-04-03T10:06:52.856Z,99114.06
2019-04-03T10:08:27.623Z,99111.95
2019-04-03T10:10:02.704Z,99107.48
2019-04-03T10:11:39.205Z,99110.17
2019-04-03T10:13:14.459Z,99110.98
2019-04-03T10:14:49.628Z,99109.53
2019-04-03T10:16:24.666Z,99104.16
2019-04-03T10:17:59.804Z,99097.55
2019-04-03T10:19:34.692Z,99095.61
2019-04-03T10:21:09.902Z,99093.70
2019-04-03T10:22:45.259Z,99083.95
2019-04-03T10:24:20.404Z,99090.71
2019-04-03T10:25:56.792Z,99080.36
2019-04-03T10:27:31.839Z,99081.93
2019-04-03T10:29:07.062Z,99078.63
2019-04-03T10:30:42.071Z,99080.11
2019-04-03T10:32:17.029Z,99075.26
2019-04-03T10:33:52.345Z,99069.75
2019-04-03T10:35:27.474Z,99067.27
2019-04-03T10:37:02.542Z,99056.28
2019-04-03T10:38:37.624Z,99050.54
2019-04-03T10:40:15.571Z,99063.74
2019-04-03T10:41:50.665Z,99063.60
2019-04-03T10:43:25.886Z,99042.45
2019-04-03T10:45:00.756Z,99036.61
2019-04-03T10:46:35.863Z,99040.36
2019-04-03T10:48:10.651Z,99038.30
2019-04-03T10:49:46.068Z,99032.52
2019-04-03T10:51:21.185Z,99040.83
2019-04-03T10:52:55.995Z,99050.56
2019-04-03T10:54:30.935Z,99057.34
2019-04-03T10:56:06.494Z,99048.13
2019-04-03T10:57:41.779Z,99049.95
2019-04-03T10:59:18.459Z,99035.70
2019-04-03T11:00:53.437Z,99032.74
2019-04-03T11:02:28.667Z,99045.89
2019-04-03T11:04:03.503Z,99049.44
2019-04-03T11:05:38.636Z,99046.84
2019-04-03T11:07:13.945Z,99050.30
2019-04-03T11:08:48.974Z,99049.26
2019-04-03T11:10:25.077Z,99053.45
2019-04-03T11:12:01.310Z,99048.95
2019-04-03T11:13:36.521Z,99039.39
2019-04-03T11:15:12.709Z,99038.11
2019-04-03T11:16:47.914Z,99018.84
2019-04-03T11:18:23.052Z,99022.35
2019-04-03T11:19:57.845Z,99033.11
2019-04-03T11:21:32.622Z,99040.31
2019-04-03T11:23:08.490Z,99043.94
2019-04-03T11:24:44.063Z,99035.58
2019-04-03T11:26:21.595Z,99035.31
2019-04-03T11:27:56.215Z,99025.15
2019-04-03T11:29:31.717Z,99025.67
2019-04-03T11:31:06.584Z,99018.83
2019-04-03T11:32:42.126Z,99015.83
2019-04-03T11:34:18.535Z,99019.14
2019-04-03T11:35:54.159Z,99013.93
2019-04-03T11:37:32.138Z,99013.08
2019-04-03T11:39:14.937Z,99025.13
2019-04-03T11:40:45.687Z,99021.00
2019-04-03T11:42:24.535Z,99014.59
2019-04-03T11:43:57.526Z,99006.88
2019-04-03T11:45:32.651Z,99017.92
2019-04-03T11:47:08.209Z,99018.13
2019-04-03T11:48:43.926Z,99012.32
2019-04-03T11:50:23.879Z,99008.06
2019-04-03T11:51:58.968Z,99007.42
2019-04-03T11:53:35.578Z,99009.29
2019-04-03T11:55:11.724Z,99004.59
2019-04-03T11:56:46.810Z,99016.42
2019-04-03T11:58:22.434Z,99010.93
2019-04-03T11:59:57.670Z,99012.91
2019-04-03T12:01:33.105Z,99007.38
2019-04-03T12:03:10.715Z,98997.20
2019-04-03T12:04:44.658Z,99006.27
2019-04-03T12:06:21.060Z,99003.44
2019-04-03T12:07:57.347Z,99002.11
2019-04-03T12:09:32.585Z,98997.38
2019-04-03T12:11:07.770Z,98993.90
2019-04-03T12:12:42.885Z,98995.30
2019-04-03T12:14:18.693Z,98987.00
2019-04-03T12:15:54.560Z,98977.41
2019-04-03T12:17:30.880Z,98976.23
2019-04-03T12:19:06.454Z,98977.89
2019-04-03T12:20:44.781Z,98982.90
2019-04-03T12:22:18.191Z,98985.34
2019-04-03T12:23:52.983Z,98976.11
2019-04-03T12:25:27.769Z,98973.97
2019-04-03T12:27:02.784Z,98972.69
2019-04-03T12:28:37.806Z,98958.04
2019-04-03T12:30:13.120Z,98958.83
2019-04-03T12:31:48.412Z,98959.29
2019-04-03T12:33:23.304Z,98968.42
2019-04-03T12:34:58.101Z,98960.16
2019-04-03T12:36:32.900Z,98958.76
2019-04-03T12:38:07.994Z,98962.63
2019-04-03T12:39:43.113Z,98961.99
2019-04-03T12:41:17.910Z,98955.23
2019-04-03T12:42:52.695Z,98953.00
2019-04-03T12:44:27.676Z,98954.92
2019-04-03T12:46:03.261Z,98945.45
2019-04-03T12:47:39.263Z,98941.67
2019-04-03T12:49:14.240Z,98929.55
2019-04-03T12:50:49.367Z,98922.22
2019-04-03T12:52:24.763Z,98926.35
2019-04-03T12:53:59.780Z,98927.08
2019-04-03T12:55:34.944Z,98925.30
2019-04-03T12:57:10.072Z,98932.35
2019-04-03T12:58:45.234Z,98936.00
2019-04-03T13:00:22.752Z,98925.95
2019-04-03T13:01:57.812Z,98926.23
2019-04-03T13:03:35.690Z,98926.15
2019-04-03T13:05:10.076Z,98927.52
2019-04-03T13:06:44.845Z,98922.37
2019-04-03T13:08:21.305Z,98915.20
2019-04-03T13:09:56.871Z,98922.27
2019-04-03T13:11:33.558Z,98917.61
2019-04-03T13:13:08.451Z,98914.53
2019-04-03T13:14:43.945Z,98908.72
2019-04-03T13:16:21.213Z,98897.83
2019-04-03T13:17:55.652Z,98896.06
2019-04-03T13:19:30.760Z,98890.68
2019-04-03T13:21:06.285Z,98893.98
2019-04-03T13:22:43.693Z,98894.91
2019-04-03T13:24:19.161Z,98896.95
2019-04-03T13:25:54.573Z,98892.59
2019-04-03T13:27:31.794Z,98881.55
2019-04-03T13:29:08.182Z,98886.16
2019-04-03T13:30:44.101Z,98878.04
2019-04-03T13:32:22.178Z,98875.13
2019-04-03T13:33:56.543Z,98883.36
2019-04-03T13:35:31.962Z,98877.27
2019-04-03T13:37:06.974Z,98873.97
2019-04-03T13:38:41.788Z,98885.03
2019-04-03T13:40:16.827Z,98883.59
2019-04-03T13:41:51.835Z,98878.56
2019-04-03T13:43:26.859Z,98873.02
2019-04-03T13:45:01.655Z,98872.82
2019-04-03T13:46:37.446Z,98871.98
2019-04-03T13:48:13.441Z,98891.08
2019-04-03T13:49:50.174Z,98884.26
2019-04-03T13:51:26.741Z,98873.19
2019-04-03T13:53:02.594Z,98875.97
2019-04-03T13:54:37.830Z,98881.49
2019-04-03T13:56:12.857Z,98871.05
2019-04-03T13:57:49.415Z,98880.25
2019-04-03T13:59:25.827Z,98872.34
2019-04-03T14:01:02.988Z,98862.02
2019-04-03T14:02:37.457Z,98872.03
2019-04-03T14:04:12.673Z,98864.27
2019-04-03T14:05:47.897Z,98859.39
2019-04-03T14:07:23.086Z,98860.63
2019-04-03T14:08:58.531Z,98862.79
2019-04-03T14:10:33.491Z,98859.33
2019-04-03T14:12:08.833Z,98854.44
2019-04-03T14:13:44.440Z,98849.97
2019-04-03T14:15:21.163Z,98842.04
2019-04-03T14:16:56.393Z,98833.06
2019-04-03T14:18:31.441Z,98838.19
2019-04-03T14:20:08.647Z,98837.95
2019-04-03T14:21:44.067Z,98830.50
2019-04-03T14:23:19.323Z,98833.45
2019-04-03T14:24:54.100Z,98832.45
2019-04-03T14:26:28.891Z,98829.62
2019-04-03T14:28:04.080Z,98835.14
2019-04-03T14:29:39.693Z,98838.19
2019-04-03T14:31:15.279Z,98837.75
2019-04-03T14:32:53.399Z,98831.73
2019-04-03T14:34:30.325Z,98832.08
2019-04-03T14:36:04.849Z,98829.03
2019-04-03T14:37:39.839Z,98834.23
2019-04-03T14:39:14.603Z,98832.09
2019-04-03T14:40:49.411Z,98821.11
2019-04-03T14:42:26.443Z,98819.06
2019-04-03T14:44:02.925Z,98817.55
2019-04-03T14:45:38.784Z,98815.27
2019-04-03T14:47:14.144Z,98823.79
2019-04-03T14:48:49.186Z,98816.92
2019-04-03T14:50:24.069Z,98822.03
2019-04-03T14:51:59.423Z,98816.60
2019-04-03T14:53:34.375Z,98819.10
2019-04-03T14:55:18.058Z,98809.97
2019-04-03T14:56:47.008Z,98810.94
2019-04-03T14:58:21.788Z,98813.89
2019-04-03T14:59:56.611Z,98813.34
2019-04-03T15:01:31.390Z,98813.59
2019-04-03T15:03:06.878Z,98808.09
2019-04-03T15:04:42.072Z,98805.56
2019-04-03T15:06:16.984Z,98799.59
2019-04-03T15:07:51.760Z,98798.86
2019-04-03T15:09:27.858Z,98799.92
2019-04-03T15:11:03.833Z,98798.86
2019-04-03T15:12:40.099Z,98799.52
2019-04-03T15:14:15.464Z,98795.25
2019-04-03T15:15:50.242Z,98795.91
2019-04-03T15:17:25.021Z,98797.57
2019-04-03T15:19:01.891Z,98795.54
2019-04-03T15:20:37.225Z,98796.49
2019-04-03T15:22:12.367Z,98790.22
2019-04-03T15:23:47.500Z,98789.36
2019-04-03T15:25:22.641Z,98793.89
2019-04-03T15:26:57.672Z,98795.11
2019-04-03T15:28:32.459Z,98794.44
2019-04-03T15:30:10.839Z,98791.92
2019-04-03T15:31:46.854Z,98785.52
2019-04-03T15:33:24.702Z,98790.17
2019-04-03T15:35:00.293Z,98778.80
2019-04-03T15:36:36.362Z,98777.00
2019-04-03T15:38:13.291Z,98778.36
2019-04-03T15:39:54.383Z,98777.71
2019-04-03T15:41:27.789Z,98781.85
2019-04-03T15:43:01.539Z,98780.97
2019-04-03T15:44:36.555Z,98776.89
2019-04-03T15:46:11.400Z,98774.54
2019-04-03T15:47:47.831Z,98771.74
2019-04-03T15:49:25.634Z,98763.48
2019-04-03T15:50:59.254Z,98762.67
2019-04-03T15:52:34.038Z,98767.55
2019-04-03T15:54:09.089Z,98760.14
2019-04-03T15:55:43.470Z,98762.55
2019-04-03T15:57:20.154Z,98755.38
2019-04-03T15:58:55.028Z,98755.38
2019-04-03T16:00:33.659Z,98754.24
2019-04-03T16:02:09.036Z,98762.20
2019-04-03T16:03:44.746Z,98761.61
2019-04-03T16:05:20.142Z,98766.53
2019-04-03T16:06:55.506Z,98762.75
2019-04-03T16:08:30.270Z,98760.50
2019-04-03T16:10:06.056Z,98754.12
2019-04-03T16:11:41.583Z,98754.82
2019-04-03T16:13:16.533Z,98757.81
2019-04-03T16:14:51.909Z,98760.39
2019-04-03T16:16:28.434Z,98755.70
2019-04-03T16:18:05.856Z,98749.58
2019-04-03T16:19:42.314Z,98751.97
2019-04-03T16:21:16.454Z,98752.50
2019-04-03T16:22:51.590Z,98743.86
2019-04-03T16:24:26.177Z,98750.63
2019-04-03T16:26:00.638Z,98751.34
2019-04-03T16:27:35.636Z,98756.08
2019-04-03T16:29:10.844Z,98756.45
2019-04-03T16:30:48.750Z,98761.73
2019-04-03T16:32:22.130Z,98761.73
2019-04-03T16:33:57.174Z,98765.25
2019-04-03T16:35:32.458Z,98753.45
2019-04-03T16:37:07.465Z,98756.11
2019-04-03T16:38:42.538Z,98756.34
2019-04-03T16:40:18.079Z,98754.38
2019-04-03T16:41:52.577Z,98752.09
2019-04-03T16:43:26.952Z,98751.13
2019-04-03T16:45:04.751Z,98748.09
2019-04-03T16:46:39.887Z,98748.44
2019-04-03T16:48:16.878Z,98748.96
2019-04-03T16:49:54.588Z,98748.14
2019-04-03T16:51:29.208Z,98748.66
2019-04-03T16:53:05.639Z,98750.65
2019-04-03T16:54:44.396Z,98748.32
2019-04-03T16:56:18.961Z,98747.20
2019-04-03T16:57:55.267Z,98753.94
2019-04-03T16:59:30.340Z,98744.80
2019-04-03T17:01:05.687Z,98733.50
2019-04-03T17:02:40.543Z,98748.24
2019-04-03T17:04:25.625Z,98745.97
2019-04-03T17:05:52.114Z,98744.69
2019-04-03T17:07:26.941Z,98739.14
2019-04-03T17:09:02.414Z,98734.09
2019-04-03T17:10:36.936Z,98735.58
2019-04-03T17:12:11.301Z,98741.02
2019-04-03T17:13:46.396Z,98741.52
2019-04-03T17:15:20.993Z,98740.05
2019-04-03T17:16:55.372Z,98739.55
2019-04-03T17:18:30.037Z,98743.48
2019-04-03T17:20:05.564Z,98736.27
2019-04-03T17:21:40.401Z,98735.14
2019-04-03T17:23:15.282Z,98740.02
2019-04-03T17:24:54.000Z,98744.13
2019-04-03T17:26:27.294Z,98742.34
2019-04-03T17:28:07.581Z,98738.58
2019-04-03T17:29:37.727Z,98746.70
2019-04-03T17:31:12.801Z,98741.66
2019-04-03T17:32:47.390Z,98740.67
2019-04-03T17:34:22.094Z,98736.56
2019-04-03T17:35:56.453Z,98736.25
2019-04-03T17:37:31.824Z,98734.27
2019-04-03T17:39:08.861Z,98736.37
2019-04-03T17:40:43.388Z,98735.03
2019-04-03T17:42:17.802Z,98733.23
2019-04-03T17:43:52.446Z,98730.11
2019-04-03T17:45:26.868Z,98728.64
2019-04-03T17:47:01.222Z,98730.28
2019-04-03T17:48:35.609Z,98725.34
2019-04-03T17:50:10.178Z,98731.19
2019-04-03T17:51:44.918Z,98734.40
2019-04-03T17:53:19.517Z,98734.91
2019-04-03T17:54:53.900Z,98731.13
2019-04-03T17:56:28.250Z,98722.31
2019-04-03T17:58:02.649Z,98722.63
2019-04-03T17:59:37.016Z,98726.84
2019-04-03T18:01:11.485Z,98723.58
2019-04-03T18:02:46.131Z,98721.65
2019-04-03T18:04:20.793Z,98729.49
2019-04-03T18:05:56.992Z,98724.89
2019-04-03T18:07:31.569Z,98724.50
2019-04-03T18:09:08.863Z,98724.04
2019-04-03T18:10:43.634Z,98734.27
2019-04-03T18:12:21.124Z,98727.58
2019-04-03T18:13:54.980Z,98726.09
2019-04-03T18:15:32.773Z,98729.21
2019-04-03T18:17:06.853Z,98738.69
2019-04-03T18:18:41.672Z,98733.65
2019-04-03T18:20:16.502Z,98733.13
2019-04-03T18:21:50.874Z,98732.91
2019-04-03T18:23:25.270Z,98733.56
2019-04-03T18:24:59.656Z,98735.74
2019-04-03T18:26:34.182Z,98737.39
2019-04-03T18:28:08.602Z,98739.66
2019-04-03T18:29:44.778Z,98739.10
2019-04-03T18:31:19.633Z,98748.03
2019-04-03T18:32:53.992Z,98748.52
2019-04-03T18:34:28.398Z,98739.48
2019-04-03T18:36:03.042Z,98739.09
2019-04-03T18:37:40.666Z,98745.56
2019-04-03T18:39:14.406Z,98745.83